This is the latest recevied weather packets stored in our database for station/object SP9KB-13. If no packets are shown the sender has not sent any weather packets the latest 1 day(s).
| Time | Temp. | Humidity | Pressure | Rain* | Wind** | Luminosity | Snow |
|---|---|---|---|---|---|---|---|
| 1778033886 | 13.33° C | 54% | 990.7 hPa | 0 mm | - | - | - |
| 1778033585 | 13.89° C | 53% | 990.6 hPa | 0 mm | - | - | - |
| 1778033285 | 13.89° C | 53% | 990.7 hPa | 0 mm | - | - | - |
| 1778032684 | 13.89° C | 52% | 990.7 hPa | 0 mm | - | - | - |
| 1778032383 | 13.89° C | 52% | 990.7 hPa | 0 mm | - | - | - |
| 1778031782 | 13.89° C | 52% | 990.7 hPa | 0 mm | - | - | - |
| 1778030880 | 13.89° C | 51% | 991 hPa | 0 mm | - | - | - |
| 1778030580 | 13.89° C | 52% | 990.9 hPa | 0 mm | - | - | - |
| 1778030279 | 13.89° C | 52% | 990.8 hPa | 0 mm | - | - | - |
| 1778029979 | 13.89° C | 51% | 990.8 hPa | 0 mm | - | - | - |
| 1778029678 | 12.22° C | 55% | 990.8 hPa | 0 mm | - | - | - |
| 1778029378 | 12.22° C | 60% | 990.8 hPa | 0 mm | - | - | - |
| 1778029077 | 12.22° C | 59% | 990.8 hPa | 0 mm | - | - | - |
| 1778028777 | 12.22° C | 58% | 990.8 hPa | 0 mm | - | - | - |
| 1778028476 | 12.78° C | 57% | 990.7 hPa | 0 mm | - | - | - |
| 1778028176 | 13.33° C | 56% | 990.6 hPa | 0 mm | - | - | - |
| 1778027875 | 13.89° C | 53% | 990.6 hPa | 0 mm | - | - | - |
| 1778027575 | 14.44° C | 49% | 990.7 hPa | 0 mm | - | - | - |
| 1778027274 | 13.89° C | 50% | 990.7 hPa | 0 mm | - | - | - |
| 1778026373 | 14.44° C | 51% | 990.5 hPa | 0 mm | - | - | - |
| 1778025772 | 13.33° C | 54% | 990.5 hPa | 0 mm | - | - | - |
| 1778025171 | 13.33° C | 55% | 990.5 hPa | 0 mm | - | - | - |
| 1778024570 | 12.78° C | 56% | 990.6 hPa | 0 mm | - | - | - |
| 1778023969 | 11.11° C | 63% | 990.7 hPa | 0 mm | - | - | - |
| 1778023368 | 10° C | 69% | 990.7 hPa | 0 mm | - | - | - |
* Rain latest hour (hover to see other rain measurements)
** Current wind speed in m/s (hover to see current wind gust speed)